»·PEaware :: N49872 KEMT-KRNM

N49872 :: KEMT-KRNM

FLIGHT INFORMATION

Flight Status: Arrived
Operator: Privately registered:
United States
More flights under this callsign
Pilot: Jeff K. (12978)
Aircraft: BEECH AIRCRAFT BARON
(BE58)
More flights by this aircraft type
Origin: KEMT El Monte
United States
Destination: KRNM Ramona
United States
More flights between these airports :: More routes between these airports
Route: +PDZ V186 ROBNN V208 JLI
File this flight plan on PilotEdge
Remarks:
Altitude:
(Current/Filed)
7,000ft
Speed:
(Current/Filed)
160kts
Departed: 15-Jul-17 09:01 PM
Arrived: 15-Jul-17 09:37 PM
Distance/Time
Traveled:
84nm/0:36
Distance/Time
To Go:
Arrived

Flight Plot

Page will automatically refresh every two minutes.


Map Options




Map Legend


Flown Route
Filed Route
Departure Airport
Arrival Airport
Navaid (VOR, NDB)
Fix

Horizontal Profiles

Position Reports

Time Latitude Longitude Heading Altitude Ground
Speed
15-Jul-17 20:42 34.085255 -118.032077 23 291ft 0kts
15-Jul-17 20:43 34.085255 -118.032077 23 291ft 0kts
15-Jul-17 20:44 34.085255 -118.032077 23 291ft 0kts
15-Jul-17 20:45 34.085327 -118.032042 15 291ft 0kts
15-Jul-17 20:46 34.085710 -118.032843 289 288ft 0kts
15-Jul-17 20:47 34.085710 -118.032843 289 288ft 0kts
15-Jul-17 20:48 34.085710 -118.032843 289 288ft 0kts
15-Jul-17 20:49 34.085710 -118.032843 289 288ft 0kts
15-Jul-17 20:50 34.085710 -118.032843 289 288ft 0kts
15-Jul-17 20:51 34.085710 -118.032843 289 288ft 0kts
15-Jul-17 20:52 34.085710 -118.032843 289 288ft 0kts
15-Jul-17 20:53 34.085710 -118.032843 289 288ft 0kts
15-Jul-17 20:54 34.085710 -118.032843 289 288ft 0kts
15-Jul-17 20:55 34.086535 -118.033910 26 285ft 8kts
15-Jul-17 20:56 34.089153 -118.032404 26 290ft 9kts
15-Jul-17 20:57 34.090597 -118.031351 0 294ft 2kts
15-Jul-17 20:58 34.090622 -118.031378 295 294ft 0kts
15-Jul-17 20:59 34.090623 -118.031379 298 294ft 0kts
15-Jul-17 21:00 34.090623 -118.031379 298 294ft 0kts
15-Jul-17 21:01 34.090623 -118.031379 298 294ft 0kts
15-Jul-17 21:02 34.090623 -118.031379 298 294ft 0kts
15-Jul-17 21:03 34.090623 -118.031379 298 294ft 0kts
15-Jul-17 21:04 34.084385 -118.035805 206 352ft 103kts
15-Jul-17 21:05 34.051256 -118.052608 191 1616ft 144kts
15-Jul-17 21:06 34.030392 -118.019104 96 2671ft 150kts
15-Jul-17 21:07 34.017017 -117.974104 107 3836ft 141kts
15-Jul-17 21:08 34.007462 -117.927876 98 4823ft 144kts
15-Jul-17 21:09 34.001238 -117.881702 101 5889ft 136kts
15-Jul-17 21:10 33.991859 -117.836926 106 6815ft 135kts
15-Jul-17 21:11 33.980299 -117.789573 106 7083ft 158kts
15-Jul-17 21:12 33.967794 -117.736948 104 7057ft 169kts
15-Jul-17 21:13 33.954649 -117.681389 105 6999ft 171kts
15-Jul-17 21:14 33.941433 -117.626425 105 7021ft 170kts
15-Jul-17 21:15 33.928128 -117.571363 105 6979ft 172kts
15-Jul-17 21:16 33.913770 -117.516818 108 7021ft 170kts
15-Jul-17 21:17 33.880531 -117.480132 156 6996ft 171kts
15-Jul-17 21:18 33.836641 -117.458246 148 6982ft 171kts
15-Jul-17 21:19 33.796494 -117.428156 145 7014ft 169kts
15-Jul-17 21:20 33.758154 -117.395175 143 7016ft 172kts
15-Jul-17 21:21 33.718842 -117.362564 143 6975ft 172kts
15-Jul-17 21:22 33.680547 -117.329154 144 7012ft 170kts
15-Jul-17 21:23 33.642599 -117.295295 142 7007ft 171kts
15-Jul-17 21:24 33.604435 -117.260938 144 6994ft 170kts
15-Jul-17 21:25 33.564933 -117.229839 147 7029ft 169kts
15-Jul-17 21:26 33.525307 -117.199315 147 7039ft 170kts
15-Jul-17 21:27 33.485080 -117.168244 145 7004ft 170kts
15-Jul-17 21:28 33.439756 -117.153230 168 6998ft 170kts
15-Jul-17 21:29 33.393030 -117.144841 172 7066ft 164kts
15-Jul-17 21:30 33.346500 -117.135611 169 7021ft 170kts
15-Jul-17 21:31 33.300052 -117.123365 167 7006ft 171kts
15-Jul-17 21:32 33.253644 -117.111552 167 6961ft 175kts
15-Jul-17 21:33 33.211910 -117.083668 141 6453ft 176kts
15-Jul-17 21:34 33.172941 -117.046372 141 5329ft 182kts
15-Jul-17 21:35 33.136001 -117.011407 141 4270ft 161kts
15-Jul-17 21:36 33.101901 -116.979022 141 3358ft 148kts
15-Jul-17 21:37 33.069063 -116.948512 143 2812ft 146kts
15-Jul-17 21:38 33.051801 -116.910708 100 2406ft 121kts
15-Jul-17 21:39 33.035033 -116.892343 253 1697ft 99kts
15-Jul-17 21:40 33.039745 -116.919161 279 1388ft 22kts
15-Jul-17 21:41 33.040461 -116.919331 99 1389ft 10kts
15-Jul-17 21:42 33.039721 -116.914295 100 1389ft 14kts
15-Jul-17 21:43 33.038974 -116.909340 101 1387ft 15kts
15-Jul-17 21:44 33.039311 -116.908297 207 1387ft 0kts

Navigation Log

Ident Type
Flight plan parsing failed, navigation log unavailable